Time;durP1;ratioP1;P1;durP2;ratioP2;P2;SDS_P1;SDS_P2;PMS_P1;PMS_P2;Temp;Humidity;BMP_temperature;BMP_pressure;BME280_temperature;BME280_humidity;BME280_pressure;Samples;Min_cycle;Max_cycle;Signal;HPM_P1;HPM_P2
2023/02/02 00:00:28;;;;;;;6.30;2.17;;;7.10;99.90;;;;;;5001050;28;20285;-72
2023/02/02 00:03:01;;;;;;;6.23;1.60;;;7.10;99.90;;;;;;5018325;28;20558;-73
2023/02/02 00:05:30;;;;;;;6.93;2.10;;;7.10;99.90;;;;;;5001297;28;20188;-73
2023/02/02 00:08:02;;;;;;;4.00;1.70;;;7.10;99.90;;;;;;5004969;28;20192;-73
2023/02/02 00:10:28;;;;;;;9.23;2.00;;;7.10;99.90;;;;;;5014903;28;20192;-72
2023/02/02 00:13:01;;;;;;;5.87;1.40;;;7.00;99.90;;;;;;5004841;28;20184;-73
2023/02/02 00:15:33;;;;;;;6.80;1.60;;;7.00;99.90;;;;;;5017748;28;20255;-73
2023/02/02 00:18:07;;;;;;;11.90;1.77;;;7.00;99.90;;;;;;5014168;28;20188;-73
2023/02/02 00:20:43;;;;;;;7.80;2.10;;;7.00;99.90;;;;;;4998424;28;20195;-72
2023/02/02 00:23:20;;;;;;;14.23;1.93;;;7.10;99.90;;;;;;5010548;28;20207;-72
2023/02/02 00:26:00;;;;;;;;;;;;;;;;;;;;;
2023/02/02 00:28:27;;;;;;;5.80;1.80;;;7.10;99.90;;;;;;5014587;28;20183;-72
2023/02/02 00:31:12;;;;;;;;;;;;;;;;;;;;;
2023/02/02 00:33:58;;;;;;;3.50;1.77;;;7.10;99.90;;;;;;5024037;28;20192;-73
2023/02/02 00:36:32;;;;;;;8.70;2.23;;;7.10;99.90;;;;;;5019522;28;20192;-73
2023/02/02 00:39:02;;;;;;;8.80;1.80;;;7.10;99.90;;;;;;5014538;28;20542;-72
2023/02/02 00:41:34;;;;;;;13.43;2.07;;;7.10;99.90;;;;;;5016035;28;20199;-72
2023/02/02 00:47:04;;;;;;;;;;;;;;;;;;;;;
2023/02/02 00:49:32;;;;;;;7.00;1.87;;;7.10;99.90;;;;;;5016120;28;20216;-73
2023/02/02 00:52:12;;;;;;;;;;;;;;;;;;;;;
2023/02/02 00:54:44;;;;;;;8.20;1.87;;;7.10;99.90;;;;;;5024010;28;20650;-73
2023/02/02 00:57:17;;;;;;;14.27;1.90;;;7.10;99.90;;;;;;5020217;28;20187;-73
2023/02/02 00:59:59;;;;;;;7.03;1.73;;;7.10;99.90;;;;;;5000452;28;20188;-72
2023/02/02 01:02:40;;;;;;;4.77;1.80;;;7.10;99.90;;;;;;5008287;28;20273;-73
2023/02/02 01:05:15;;;;;;;5.57;1.87;;;7.10;99.90;;;;;;5003672;28;20207;-72
2023/02/02 01:07:46;;;;;;;10.20;2.10;;;7.20;99.90;;;;;;5025638;28;20184;-72
2023/02/02 01:10:23;;;;;;;6.87;1.57;;;7.20;99.90;;;;;;5014093;28;20185;-72
2023/02/02 01:12:49;;;;;;;9.77;1.97;;;7.10;99.90;;;;;;5013693;28;20804;-73
2023/02/02 01:15:30;;;;;;;13.03;2.10;;;7.00;99.90;;;;;;5005508;28;20208;-73
2023/02/02 01:18:07;;;;;;;6.83;2.20;;;7.00;99.90;;;;;;5021378;28;20224;-72
2023/02/02 01:20:33;;;;;;;10.43;2.30;;;7.00;99.90;;;;;;5019301;28;20295;-72
2023/02/02 01:23:12;;;;;;;3.47;1.57;;;7.00;99.90;;;;;;5018204;28;20216;-72
2023/02/02 01:25:56;;;;;;;3.90;1.50;;;7.00;99.90;;;;;;5018152;28;20208;-72
2023/02/02 01:28:28;;;;;;;7.97;1.87;;;7.00;99.90;;;;;;5006553;28;20865;-73
2023/02/02 01:31:10;;;;;;;14.50;2.23;;;7.10;99.90;;;;;;5001231;28;20195;-74
2023/02/02 01:33:50;;;;;;;13.50;2.17;;;7.00;99.90;;;;;;5004916;28;20186;-72
2023/02/02 01:36:24;;;;;;;6.63;1.60;;;7.00;99.90;;;;;;5018247;28;20199;-72
2023/02/02 01:39:13;;;;;;;;;;;;;;;;;;;;;
2023/02/02 01:42:03;;;;;;;;;;;;;;;;;;;;;
2023/02/02 01:45:18;;;;;;;10.67;2.00;;;7.00;99.90;;;;;;5017230;28;20200;-73
2023/02/02 01:47:53;;;;;;;8.87;1.70;;;6.90;99.90;;;;;;5017513;28;20200;-73
2023/02/02 01:50:34;;;;;;;11.60;2.17;;;7.00;99.90;;;;;;4986079;28;20230;-72
2023/02/02 01:53:07;;;;;;;6.13;1.90;;;6.90;99.90;;;;;;5003280;28;20212;-72
2023/02/02 01:55:38;;;;;;;10.77;2.17;;;6.90;99.90;;;;;;5020655;28;20214;-72
2023/02/02 01:58:32;;;;;;;21.23;1.90;;;7.00;99.90;;;;;;5017220;28;20192;-72
2023/02/02 02:01:02;;;;;;;12.30;2.23;;;7.00;99.90;;;;;;5003599;28;20589;-73
2023/02/02 02:03:38;;;;;;;9.47;2.30;;;7.00;99.90;;;;;;5017954;28;20219;-73
2023/02/02 02:06:24;;;;;;;7.30;1.60;;;6.90;99.90;;;;;;5007130;28;20184;-73
2023/02/02 02:09:05;;;;;;;;;;;;;;;;;;;;;
2023/02/02 02:11:42;;;;;;;4.63;1.93;;;6.90;99.90;;;;;;5018457;28;20200;-72
2023/02/02 02:17:41;;;;;;;7.17;1.80;;;7.00;99.90;;;;;;4949954;28;20255;-72
2023/02/02 02:28:29;;;;;;;7.17;2.17;;;6.80;99.90;;;;;;5019627;28;20569;-72
2023/02/02 02:32:00;;;;;;;8.17;2.07;;;6.90;99.90;;;;;;5002132;28;20552;-72
2023/02/02 02:35:08;;;;;;;7.10;2.30;;;6.80;99.90;;;;;;5008633;28;20240;-72
2023/02/02 02:38:10;;;;;;;7.73;1.97;;;6.90;99.90;;;;;;5019048;28;20207;-72
2023/02/02 02:41:02;;;;;;;14.57;2.77;;;6.80;99.90;;;;;;5017573;28;20239;-74
2023/02/02 02:43:40;;;;;;;5.33;1.30;;;6.80;99.90;;;;;;5018719;28;20308;-73
2023/02/02 02:46:12;;;;;;;7.30;1.97;;;6.80;99.90;;;;;;4999576;28;20195;-73
2023/02/02 02:48:49;;;;;;;7.17;2.03;;;6.80;99.90;;;;;;5021870;28;20218;-73
2023/02/02 02:51:46;;;;;;;8.97;1.90;;;6.80;99.90;;;;;;5007853;28;20267;-73
2023/02/02 02:54:34;;;;;;;10.50;2.80;;;6.70;99.90;;;;;;5021970;28;20583;-73
2023/02/02 02:57:59;;;;;;;6.90;1.87;;;6.70;99.90;;;;;;5022438;28;20192;-73
2023/02/02 03:01:04;;;;;;;3.87;1.50;;;6.70;99.90;;;;;;5022013;28;20185;-73
2023/02/02 03:04:26;;;;;;;8.03;1.90;;;6.70;99.90;;;;;;4987664;28;21212;-73
2023/02/02 03:07:21;;;;;;;7.17;2.10;;;6.70;99.90;;;;;;4932638;28;20215;-73
2023/02/02 03:10:02;;;;;;;10.83;1.70;;;6.70;99.90;;;;;;5000344;28;20219;-73
2023/02/02 03:12:31;;;;;;;5.43;1.70;;;6.70;99.90;;;;;;5002245;28;20208;-73
2023/02/02 03:15:04;;;;;;;8.83;2.13;;;6.70;99.90;;;;;;5001165;28;20188;-73
2023/02/02 03:17:34;;;;;;;5.23;1.80;;;6.70;99.90;;;;;;4983166;28;20657;-73
2023/02/02 03:20:05;;;;;;;7.33;1.90;;;6.70;99.90;;;;;;4996519;28;20196;-73
2023/02/02 03:22:38;;;;;;;10.23;2.70;;;6.70;99.90;;;;;;5018011;28;20223;-73
2023/02/02 03:25:11;;;;;;;6.87;2.00;;;6.70;99.90;;;;;;4980869;28;20949;-73
2023/02/02 03:27:44;;;;;;;6.40;2.13;;;6.70;99.90;;;;;;5017721;28;20184;-73
2023/02/02 03:30:14;;;;;;;14.63;2.13;;;6.80;99.90;;;;;;5018595;28;21100;-73
2023/02/02 03:32:46;;;;;;;7.50;2.03;;;6.70;99.90;;;;;;5000965;28;20323;-73
2023/02/02 03:35:25;;;;;;;9.90;2.00;;;6.70;99.90;;;;;;5016848;28;20193;-73
2023/02/02 03:37:56;;;;;;;9.17;1.70;;;6.70;99.90;;;;;;5017318;28;20267;-73
2023/02/02 03:40:26;;;;;;;7.63;2.00;;;6.80;99.90;;;;;;5012851;28;20188;-73
2023/02/02 03:42:59;;;;;;;9.27;2.00;;;6.80;99.90;;;;;;4988080;28;20195;-73
2023/02/02 03:45:39;;;;;;;11.33;1.83;;;6.70;99.90;;;;;;5018595;28;20282;-73
2023/02/02 03:48:11;;;;;;;8.87;2.10;;;6.70;99.90;;;;;;5016632;28;20188;-73
2023/02/02 03:50:39;;;;;;;6.17;1.57;;;6.70;99.90;;;;;;4978195;28;20180;-73
2023/02/02 03:53:15;;;;;;;9.57;1.87;;;6.80;99.90;;;;;;5015530;28;20208;-73
2023/02/02 03:55:56;;;;;;;10.10;1.80;;;6.80;99.90;;;;;;4999390;28;20180;-74
2023/02/02 03:58:32;;;;;;;10.57;1.73;;;6.80;99.90;;;;;;4998020;28;20730;-73
2023/02/02 04:01:13;;;;;;;8.70;1.87;;;6.70;99.90;;;;;;4996295;28;20226;-73
2023/02/02 04:03:42;;;;;;;7.70;1.90;;;6.70;99.90;;;;;;4991320;28;20203;-73
2023/02/02 04:06:18;;;;;;;4.73;1.50;;;6.70;99.90;;;;;;5014131;28;20184;-73
2023/02/02 04:08:49;;;;;;;6.87;1.80;;;6.80;99.90;;;;;;5014847;28;20542;-73
2023/02/02 04:11:20;;;;;;;5.33;1.63;;;6.80;99.90;;;;;;5011243;28;20189;-73
2023/02/02 04:14:05;;;;;;;;;;;;;;;;;;;;;
2023/02/02 04:16:38;;;;;;;7.63;2.00;;;6.80;99.90;;;;;;5017541;28;20243;-73
2023/02/02 04:19:16;;;;;;;5.93;2.03;;;6.80;99.90;;;;;;5017409;28;20238;-73
2023/02/02 04:21:49;;;;;;;9.53;1.93;;;6.80;99.90;;;;;;5014549;28;20197;-73
2023/02/02 04:24:25;;;;;;;7.63;1.93;;;6.70;99.90;;;;;;4986354;28;20608;-73
2023/02/02 04:26:56;;;;;;;12.73;2.03;;;6.70;99.90;;;;;;4995715;28;20673;-73
2023/02/02 04:29:33;;;;;;;3.83;1.50;;;6.80;99.90;;;;;;5003177;28;20195;-73
2023/02/02 04:32:34;;;;;;;;;;;;;;;;;;;;;
2023/02/02 04:35:09;;;;;;;13.07;2.00;;;6.80;99.90;;;;;;5019905;28;20565;-73
2023/02/02 04:37:46;;;;;;;9.80;2.23;;;6.70;99.90;;;;;;5018655;28;20187;-73
2023/02/02 04:40:22;;;;;;;5.17;1.80;;;6.70;99.90;;;;;;5015469;28;20203;-74
2023/02/02 04:42:52;;;;;;;5.73;1.60;;;6.70;99.90;;;;;;5013340;28;20652;-73
2023/02/02 04:45:27;;;;;;;8.87;1.63;;;6.80;99.90;;;;;;5001460;28;20186;-74
2023/02/02 04:47:57;;;;;;;4.30;1.57;;;6.80;99.90;;;;;;4995678;28;20194;-73
2023/02/02 04:53:33;;;;;;;8.43;1.60;;;6.70;99.90;;;;;;5020894;28;20208;-73
2023/02/02 04:56:12;;;;;;;7.37;1.50;;;6.70;99.90;;;;;;5001658;28;20188;-73
2023/02/02 04:58:40;;;;;;;8.50;2.10;;;6.70;99.90;;;;;;5020282;28;20310;-73
2023/02/02 05:01:18;;;;;;;7.57;1.97;;;6.70;99.90;;;;;;5013353;28;20192;-73
2023/02/02 05:03:55;;;;;;;6.33;1.80;;;6.70;99.90;;;;;;5017560;28;20334;-73
2023/02/02 05:06:29;;;;;;;9.40;1.90;;;6.70;99.90;;;;;;5019326;28;20184;-73
2023/02/02 05:09:10;;;;;;;7.47;1.67;;;6.80;99.90;;;;;;4982666;28;20294;-73
2023/02/02 05:11:43;;;;;;;4.60;1.97;;;6.70;99.90;;;;;;4995789;28;20673;-73
2023/02/02 05:14:17;;;;;;;7.97;1.53;;;6.70;99.90;;;;;;5020293;28;20214;-73
2023/02/02 05:16:54;;;;;;;7.20;1.87;;;6.70;99.90;;;;;;4986142;28;20176;-73
2023/02/02 05:19:24;;;;;;;6.90;1.50;;;6.70;99.90;;;;;;5021575;28;20657;-73
2023/02/02 05:21:54;;;;;;;9.30;2.47;;;6.70;99.90;;;;;;5021744;28;20218;-73
2023/02/02 05:24:29;;;;;;;9.30;1.70;;;6.70;99.90;;;;;;5003649;28;20276;-73
2023/02/02 05:27:19;;;;;;;6.60;2.00;;;6.70;99.90;;;;;;5004898;28;20188;-73
2023/02/02 05:29:49;;;;;;;4.77;1.60;;;6.70;99.90;;;;;;5020465;28;20198;-73
2023/02/02 05:32:28;;;;;;;7.10;1.73;;;6.60;99.90;;;;;;4991210;28;20456;-73
2023/02/02 05:35:00;;;;;;;10.80;2.13;;;6.60;99.90;;;;;;5015652;28;20557;-73
2023/02/02 05:37:27;;;;;;;5.80;1.80;;;6.60;99.90;;;;;;5025544;28;20184;-73
2023/02/02 05:39:54;;;;;;;10.00;1.80;;;6.60;99.90;;;;;;5007375;28;20242;-73
2023/02/02 05:42:21;;;;;;;7.87;2.20;;;6.70;99.90;;;;;;5005128;28;20177;-73
2023/02/02 05:44:50;;;;;;;7.73;2.13;;;6.70;99.90;;;;;;5019795;28;20576;-74
2023/02/02 05:47:21;;;;;;;9.00;1.97;;;6.70;99.90;;;;;;5009963;28;20184;-73
2023/02/02 05:49:54;;;;;;;7.87;2.00;;;6.70;99.90;;;;;;4984761;28;20192;-73
2023/02/02 05:52:28;;;;;;;11.97;2.03;;;6.80;99.90;;;;;;4985609;28;20449;-73
2023/02/02 05:54:55;;;;;;;4.90;1.67;;;6.80;99.90;;;;;;5020809;28;20806;-73
2023/02/02 05:57:24;;;;;;;8.90;1.90;;;6.80;99.90;;;;;;5025494;28;20267;-73
2023/02/02 06:00:02;;;;;;;12.17;2.27;;;6.90;99.90;;;;;;5006043;28;20600;-73
2023/02/02 06:02:31;;;;;;;11.57;1.90;;;6.90;99.90;;;;;;5001903;28;20204;-73
2023/02/02 06:04:59;;;;;;;9.27;2.10;;;6.90;99.90;;;;;;4997485;28;20197;-73
2023/02/02 06:07:31;;;;;;;11.20;1.77;;;6.90;99.90;;;;;;5003092;28;20234;-73
2023/02/02 06:10:06;;;;;;;4.53;1.63;;;6.90;99.90;;;;;;5023734;28;20210;-73
2023/02/02 06:12:38;;;;;;;8.87;2.00;;;6.90;99.90;;;;;;5002763;28;20325;-73
2023/02/02 06:15:14;;;;;;;7.47;1.80;;;7.00;99.90;;;;;;5018160;28;20280;-73
2023/02/02 06:17:47;;;;;;;7.60;2.10;;;7.00;99.90;;;;;;5005586;28;20230;-73
2023/02/02 06:20:20;;;;;;;6.50;2.00;;;7.00;99.90;;;;;;5003594;28;20192;-73
2023/02/02 06:22:50;;;;;;;6.20;1.83;;;7.10;99.90;;;;;;5017866;28;20577;-73
2023/02/02 06:25:19;;;;;;;8.50;1.80;;;7.20;99.90;;;;;;5021336;28;20203;-73
2023/02/02 06:28:02;;;;;;;7.97;2.23;;;7.20;99.90;;;;;;5020259;28;20228;-73
2023/02/02 06:30:34;;;;;;;9.10;2.43;;;7.20;99.90;;;;;;5004505;28;20226;-73
2023/02/02 06:33:09;;;;;;;9.97;1.80;;;7.30;99.90;;;;;;5023000;28;20216;-73
2023/02/02 06:35:38;;;;;;;8.23;1.70;;;7.40;99.90;;;;;;5005826;28;20183;-73
2023/02/02 06:38:10;;;;;;;6.73;1.93;;;7.40;99.90;;;;;;5002851;28;20198;-73
2023/02/02 06:40:43;;;;;;;6.33;1.97;;;7.50;99.90;;;;;;4997570;28;20196;-73
2023/02/02 06:43:13;;;;;;;4.93;1.60;;;7.50;99.90;;;;;;5021565;28;20176;-73
2023/02/02 06:45:48;;;;;;;5.73;2.00;;;7.60;99.90;;;;;;5019301;28;20199;-73
2023/02/02 06:48:17;;;;;;;3.70;1.70;;;7.60;99.90;;;;;;5003015;28;20206;-73
2023/02/02 06:50:52;;;;;;;4.73;1.50;;;7.60;99.90;;;;;;5004659;28;20195;-73
2023/02/02 06:53:25;;;;;;;6.53;1.60;;;7.70;99.90;;;;;;5004253;28;20211;-73
2023/02/02 06:56:12;;;;;;;;;;;;;;;;;;;;;
2023/02/02 06:58:43;;;;;;;3.80;1.87;;;7.80;99.90;;;;;;5009292;28;20214;-73
2023/02/02 07:01:17;;;;;;;8.70;1.90;;;7.90;99.90;;;;;;5012644;28;20184;-73
2023/02/02 07:03:49;;;;;;;8.60;2.00;;;8.00;99.90;;;;;;5000319;28;20242;-73
2023/02/02 07:06:35;;;;;;;6.60;2.13;;;8.00;99.90;;;;;;4982288;28;20188;-73
2023/02/02 07:09:04;;;;;;;12.33;2.00;;;8.10;99.90;;;;;;5008405;28;20188;-74
2023/02/02 07:11:48;;;;;;;5.07;2.00;;;8.10;99.90;;;;;;4990888;28;20271;-73
2023/02/02 07:14:24;;;;;;;6.70;1.83;;;8.20;99.90;;;;;;5014382;28;20894;-73
2023/02/02 07:16:57;;;;;;;9.93;1.97;;;8.20;99.90;;;;;;4997433;28;20188;-73
2023/02/02 07:19:24;;;;;;;11.67;2.47;;;8.30;99.90;;;;;;5017836;28;20303;-73
2023/02/02 07:21:57;;;;;;;7.53;1.97;;;8.40;99.90;;;;;;5013531;28;20275;-73
2023/02/02 07:24:36;;;;;;;;;;;;;;;;;;;;;
2023/02/02 07:27:04;;;;;;;5.77;2.30;;;8.40;99.90;;;;;;5011745;28;20207;-73
2023/02/02 07:29:33;;;;;;;7.73;2.23;;;8.40;99.90;;;;;;5000863;28;20195;-73
2023/02/02 07:32:06;;;;;;;4.97;2.00;;;8.50;99.90;;;;;;4996318;28;20224;-73
2023/02/02 07:34:41;;;;;;;6.63;1.90;;;8.50;99.90;;;;;;4985568;28;21809;-73
2023/02/02 07:37:11;;;;;;;9.67;2.73;;;8.60;99.90;;;;;;4990805;28;20183;-73
2023/02/02 07:39:40;;;;;;;6.50;1.90;;;8.60;99.90;;;;;;4992658;28;20203;-73
2023/02/02 07:42:12;;;;;;;8.43;1.90;;;8.70;99.90;;;;;;5009159;28;20554;-73
2023/02/02 07:44:39;;;;;;;8.20;2.20;;;8.80;99.90;;;;;;4986200;28;20250;-73
2023/02/02 07:47:25;;;;;;;8.53;1.97;;;8.80;99.90;;;;;;5018580;28;20177;-73
2023/02/02 07:50:03;;;;;;;9.33;1.90;;;8.80;99.90;;;;;;5022069;28;20184;-73
2023/02/02 07:52:55;;;;;;;;;;;;;;;;;;;;;
2023/02/02 07:55:28;;;;;;;4.47;1.80;;;9.00;99.90;;;;;;5015553;28;20188;-73
2023/02/02 07:58:11;;;;;;;;;;;;;;;;;;;;;
2023/02/02 08:00:40;;;;;;;4.90;1.80;;;9.10;99.90;;;;;;4999745;28;20603;-73
2023/02/02 08:03:12;;;;;;;12.83;2.10;;;9.10;99.90;;;;;;4995603;28;20204;-73
2023/02/02 08:05:50;;;;;;;5.13;1.70;;;9.00;99.90;;;;;;5008114;28;20849;-73
2023/02/02 08:08:17;;;;;;;4.03;1.63;;;9.00;99.90;;;;;;5018848;28;20567;-73
2023/02/02 08:10:57;;;;;;;11.93;2.10;;;9.20;99.90;;;;;;5022165;28;20673;-73
2023/02/02 08:13:28;;;;;;;11.53;2.20;;;9.30;99.90;;;;;;5015470;28;20208;-73
2023/02/02 08:15:59;;;;;;;8.97;2.80;;;9.30;99.90;;;;;;5014764;28;20193;-73
2023/02/02 08:18:32;;;;;;;9.67;2.27;;;9.20;99.90;;;;;;5015218;28;20767;-73
2023/02/02 08:21:02;;;;;;;9.50;2.13;;;9.20;99.90;;;;;;5018548;28;20226;-73
2023/02/02 08:23:34;;;;;;;7.73;2.43;;;9.30;99.90;;;;;;5012653;28;20688;-73
2023/02/02 08:26:28;;;;;;;5.37;1.90;;;9.30;99.90;;;;;;4996987;28;20189;-73
2023/02/02 08:29:15;;;;;;;3.57;1.80;;;9.30;99.90;;;;;;5013802;28;20225;-73
2023/02/02 08:31:55;;;;;;;10.83;2.67;;;9.30;99.90;;;;;;5016846;28;20264;-73
2023/02/02 08:34:35;;;;;;;;;;;;;;;;;;;;;
2023/02/02 08:37:10;;;;;;;8.87;2.10;;;9.40;99.90;;;;;;5001959;28;20183;-73
2023/02/02 08:39:43;;;;;;;6.10;1.90;;;9.50;99.90;;;;;;5020223;28;20203;-73
2023/02/02 08:42:12;;;;;;;6.27;1.80;;;9.50;99.90;;;;;;5017665;28;20192;-73
2023/02/02 08:44:40;;;;;;;9.37;2.17;;;9.50;99.90;;;;;;5022286;28;20282;-74
2023/02/02 08:47:12;;;;;;;8.67;1.90;;;9.60;99.90;;;;;;5017135;28;20265;-73
2023/02/02 08:49:41;;;;;;;13.53;2.13;;;9.60;99.90;;;;;;4993236;28;20259;-73
2023/02/02 08:52:10;;;;;;;5.50;1.87;;;9.70;99.90;;;;;;5009514;28;20188;-73
2023/02/02 08:54:39;;;;;;;5.57;2.10;;;9.60;99.90;;;;;;5021686;28;20346;-73
2023/02/02 08:57:14;;;;;;;4.17;1.77;;;9.40;99.90;;;;;;4998076;28;20199;-73
2023/02/02 08:59:42;;;;;;;3.50;1.77;;;9.40;99.90;;;;;;5004647;28;20188;-74
2023/02/02 09:02:16;;;;;;;6.50;2.30;;;9.30;99.90;;;;;;5017060;28;20192;-73
2023/02/02 09:04:55;;;;;;;10.93;2.30;;;9.50;99.90;;;;;;5015107;28;20188;-73
2023/02/02 09:07:25;;;;;;;10.83;2.33;;;9.60;99.90;;;;;;5002309;28;21039;-74
2023/02/02 09:09:57;;;;;;;11.00;2.60;;;9.70;99.90;;;;;;5022675;28;20262;-74
2023/02/02 09:12:33;;;;;;;8.00;2.37;;;9.90;99.90;;;;;;5019321;28;20234;-73
2023/02/02 09:15:09;;;;;;;8.40;2.50;;;9.90;99.90;;;;;;4996768;28;20193;-74
2023/02/02 09:17:43;;;;;;;8.33;1.97;;;9.90;99.90;;;;;;5001768;28;20184;-73
2023/02/02 09:20:11;;;;;;;6.97;1.87;;;10.00;99.90;;;;;;5004795;28;20190;-73
2023/02/02 09:22:41;;;;;;;2.83;1.50;;;9.90;99.90;;;;;;5006304;28;20219;-73
2023/02/02 09:25:11;;;;;;;5.73;2.00;;;9.80;99.90;;;;;;5016954;28;20200;-73
2023/02/02 09:27:41;;;;;;;5.13;2.20;;;9.80;99.90;;;;;;4996721;28;20214;-74
2023/02/02 09:30:12;;;;;;;5.70;1.77;;;9.70;99.90;;;;;;5017980;28;20214;-73
2023/02/02 09:32:44;;;;;;;6.93;1.87;;;9.80;99.90;;;;;;5001954;28;20246;-73
2023/02/02 09:35:12;;;;;;;8.20;2.13;;;9.90;99.90;;;;;;5021285;28;20181;-73
2023/02/02 09:37:44;;;;;;;9.60;2.07;;;10.10;99.90;;;;;;4998196;28;20301;-74
2023/02/02 09:40:20;;;;;;;8.83;2.30;;;10.10;99.90;;;;;;5006459;28;20637;-73
2023/02/02 09:43:11;;;;;;;8.10;2.10;;;10.00;99.90;;;;;;5002169;28;20188;-73
2023/02/02 09:46:25;;;;;;;;;;;;;;;;;;;;;
2023/02/02 09:49:21;;;;;;;6.70;1.90;;;10.20;99.90;;;;;;5013581;28;20205;-73
2023/02/02 09:52:08;;;;;;;8.37;2.00;;;10.00;99.90;;;;;;5017725;28;20203;-73
2023/02/02 09:54:47;;;;;;;7.57;2.17;;;10.00;99.90;;;;;;5025605;28;20359;-73
2023/02/02 09:57:34;;;;;;;9.93;1.93;;;9.90;99.90;;;;;;4998992;28;20549;-73
2023/02/02 10:00:30;;;;;;;7.70;2.57;;;9.90;99.90;;;;;;5023658;28;20188;-73
2023/02/02 10:03:57;;;;;;;5.27;2.63;;;10.10;99.90;;;;;;4984674;28;20289;-74
2023/02/02 10:06:42;;;;;;;9.60;1.90;;;10.30;99.90;;;;;;4987428;28;20674;-74
2023/02/02 10:09:47;;;;;;;7.17;2.00;;;10.40;99.90;;;;;;5002548;28;20264;-73
2023/02/02 10:12:42;;;;;;;7.60;1.87;;;10.50;99.90;;;;;;5020164;28;20271;-73
2023/02/02 10:15:49;;;;;;;6.90;2.10;;;10.50;99.90;;;;;;5014222;28;20192;-73
2023/02/02 10:18:58;;;;;;;9.93;2.23;;;10.40;99.90;;;;;;4979138;28;20207;-73
2023/02/02 10:21:59;;;;;;;5.03;1.83;;;10.40;99.90;;;;;;4997508;28;20287;-73
2023/02/02 10:24:31;;;;;;;9.13;2.20;;;10.40;99.90;;;;;;5002217;28;20185;-73
2023/02/02 10:27:17;;;;;;;14.97;2.10;;;10.30;99.90;;;;;;5019370;28;20306;-73
2023/02/02 10:30:05;;;;;;;6.27;1.90;;;10.20;99.90;;;;;;5019689;28;20196;-74
2023/02/02 10:33:05;;;;;;;6.07;2.30;;;10.10;99.90;;;;;;5017376;28;20550;-74
2023/02/02 10:35:58;;;;;;;6.27;2.13;;;10.30;99.90;;;;;;5017559;28;20184;-74
2023/02/02 10:38:40;;;;;;;10.37;2.10;;;10.40;99.90;;;;;;5001852;28;20731;-73
2023/02/02 10:41:27;;;;;;;7.77;2.03;;;10.40;99.90;;;;;;5001586;28;20561;-74
2023/02/02 10:44:15;;;;;;;6.47;1.80;;;10.20;99.90;;;;;;4996748;28;20560;-73
2023/02/02 10:47:20;;;;;;;5.80;2.10;;;10.10;99.90;;;;;;5018022;28;20200;-73
2023/02/02 10:50:14;;;;;;;7.40;2.10;;;10.00;99.90;;;;;;4996465;28;20593;-73
2023/02/02 10:53:12;;;;;;;6.33;1.93;;;10.00;99.90;;;;;;5021181;28;20200;-73
2023/02/02 10:56:07;;;;;;;7.17;2.00;;;10.30;99.90;;;;;;5002183;28;20216;-73
2023/02/02 10:59:05;;;;;;;5.20;2.27;;;10.70;99.90;;;;;;5003219;28;20188;-74
2023/02/02 11:01:34;;;;;;;7.70;2.10;;;10.60;99.90;;;;;;5022754;28;20515;-73
2023/02/02 11:06:55;;;;;;;5.63;1.77;;;10.40;99.90;;;;;;5018938;28;20715;-73
2023/02/02 11:09:40;;;;;;;8.67;2.00;;;10.40;99.90;;;;;;5025253;28;20755;-73
2023/02/02 11:12:41;;;;;;;5.17;1.90;;;10.60;99.90;;;;;;5012656;28;20196;-73
2023/02/02 11:15:28;;;;;;;4.87;1.70;;;10.50;99.90;;;;;;4981701;28;20211;-73
2023/02/02 11:18:14;;;;;;;6.30;2.10;;;10.40;99.90;;;;;;5016410;28;20188;-73
2023/02/02 11:20:41;;;;;;;8.70;2.30;;;10.50;99.90;;;;;;4999403;28;20709;-73
2023/02/02 11:23:20;;;;;;;5.80;1.90;;;11.10;99.90;;;;;;5016215;28;20188;-73
2023/02/02 11:26:05;;;;;;;7.03;1.87;;;11.70;99.90;;;;;;5019411;28;20270;-73
2023/02/02 11:28:39;;;;;;;3.83;2.13;;;12.10;99.90;;;;;;5015932;28;20187;-73
2023/02/02 11:31:07;;;;;;;4.93;2.00;;;11.80;99.90;;;;;;5001023;28;20502;-73
2023/02/02 11:33:37;;;;;;;3.90;1.70;;;11.30;99.90;;;;;;5012432;28;20203;-74
2023/02/02 11:36:23;;;;;;;5.17;2.03;;;11.10;99.90;;;;;;5023929;28;20554;-73
2023/02/02 11:39:22;;;;;;;6.83;1.97;;;11.10;99.90;;;;;;5002349;28;20247;-74
2023/02/02 11:41:50;;;;;;;10.17;2.57;;;11.00;99.90;;;;;;5021061;28;20188;-73
2023/02/02 11:44:32;;;;;;;5.20;2.03;;;11.00;99.90;;;;;;5003097;28;20287;-73
2023/02/02 11:47:05;;;;;;;7.03;1.97;;;11.00;99.90;;;;;;5000496;28;20193;-73
2023/02/02 11:49:46;;;;;;;8.17;1.90;;;11.20;99.90;;;;;;5019525;28;20199;-73
2023/02/02 11:52:24;;;;;;;6.87;2.20;;;11.40;99.90;;;;;;4993758;28;20905;-74
2023/02/02 11:55:10;;;;;;;8.53;2.03;;;11.40;99.90;;;;;;4997519;28;20188;-74
2023/02/02 11:58:17;;;;;;;5.23;1.70;;;11.30;99.90;;;;;;4995327;28;20180;-73
2023/02/02 12:00:58;;;;;;;7.87;1.83;;;11.30;99.90;;;;;;5000856;28;20188;-74
2023/02/02 12:03:37;;;;;;;6.03;2.10;;;11.40;99.90;;;;;;4997383;28;20628;-73
2023/02/02 12:06:36;;;;;;;4.47;2.10;;;11.50;99.90;;;;;;4985513;28;20200;-73
2023/02/02 12:09:27;;;;;;;5.87;1.80;;;11.30;99.90;;;;;;4990714;28;20613;-73
2023/02/02 12:12:50;;;;;;;;;;;;;;;;;;;;;
2023/02/02 12:15:52;;;;;;;4.43;1.93;;;11.40;99.90;;;;;;5027534;28;20188;-74
2023/02/02 12:18:40;;;;;;;8.13;2.20;;;11.50;99.90;;;;;;5019440;28;20187;-73
2023/02/02 12:21:40;;;;;;;6.07;2.13;;;11.50;99.90;;;;;;5018925;28;20250;-73
2023/02/02 12:24:46;;;;;;;;;;;;;;;;;;;;;
2023/02/02 12:28:22;;;;;;;8.60;2.13;;;11.30;99.90;;;;;;4997685;28;20185;-73
2023/02/02 12:31:17;;;;;;;12.33;2.47;;;11.10;99.90;;;;;;4987414;28;20321;-74
2023/02/02 12:33:58;;;;;;;10.50;1.83;;;10.90;99.90;;;;;;5016534;28;20212;-73
2023/02/02 12:36:47;;;;;;;8.37;2.23;;;11.10;99.90;;;;;;5022496;28;20188;-73
2023/02/02 12:39:33;;;;;;;6.53;2.30;;;11.10;99.90;;;;;;5017352;28;21073;-73
2023/02/02 12:42:22;;;;;;;8.53;2.23;;;11.20;99.90;;;;;;5016783;28;20189;-73
2023/02/02 12:45:07;;;;;;;10.97;2.53;;;11.40;99.90;;;;;;5018801;28;20336;-73
2023/02/02 12:48:21;;;;;;;4.60;1.90;;;11.30;99.90;;;;;;5023598;28;20203;-73
2023/02/02 12:51:30;;;;;;;;;;;;;;;;;;;;;
2023/02/02 12:54:35;;;;;;;10.50;2.30;;;10.80;99.90;;;;;;5015378;28;20224;-73
2023/02/02 12:57:40;;;;;;;4.70;2.00;;;10.70;99.90;;;;;;5004440;28;20196;-73
2023/02/02 13:00:45;;;;;;;8.77;2.40;;;10.80;99.90;;;;;;4921895;29;20195;-74
2023/02/02 13:03:44;;;;;;;6.23;1.90;;;10.80;99.90;;;;;;4949934;28;20196;-73
2023/02/02 13:07:00;;;;;;;6.80;2.10;;;10.70;99.90;;;;;;5007781;28;20565;-73
2023/02/02 13:09:54;;;;;;;6.23;2.03;;;10.80;99.90;;;;;;5026129;28;20192;-73
2023/02/02 13:12:24;;;;;;;9.17;2.27;;;10.80;99.90;;;;;;5005074;28;20596;-73
2023/02/02 13:15:03;;;;;;;6.83;2.07;;;10.70;99.90;;;;;;5022848;28;20224;-73
2023/02/02 13:17:48;;;;;;;9.87;2.10;;;10.90;99.90;;;;;;5007389;28;20192;-73
2023/02/02 13:20:41;;;;;;;7.87;1.93;;;11.00;99.90;;;;;;5017723;28;20176;-73
2023/02/02 13:23:52;;;;;;;6.50;1.90;;;11.00;99.90;;;;;;5017609;28;20791;-73
2023/02/02 13:26:27;;;;;;;7.13;1.90;;;11.00;99.90;;;;;;5016229;28;20284;-73
2023/02/02 13:29:09;;;;;;;7.97;1.90;;;11.10;99.90;;;;;;5007061;28;20191;-73
2023/02/02 13:32:04;;;;;;;4.23;1.90;;;11.00;99.90;;;;;;5007782;28;20720;-73
2023/02/02 13:34:58;;;;;;;7.07;2.10;;;10.80;99.90;;;;;;5021341;28;20219;-73
2023/02/02 13:38:01;;;;;;;8.03;2.27;;;10.70;99.90;;;;;;5019736;28;20267;-73
2023/02/02 13:40:42;;;;;;;5.73;2.10;;;10.70;99.90;;;;;;5021930;28;20847;-73
2023/02/02 13:43:39;;;;;;;6.20;2.00;;;10.80;99.90;;;;;;4991386;28;20853;-73
2023/02/02 13:46:11;;;;;;;5.90;1.70;;;10.80;99.90;;;;;;5000925;28;20189;-73
2023/02/02 13:49:06;;;;;;;7.10;2.03;;;10.60;99.90;;;;;;5007675;28;20184;-73
2023/02/02 13:52:15;;;;;;;7.60;1.87;;;10.60;99.90;;;;;;5004180;28;20208;-73
2023/02/02 13:55:42;;;;;;;4.30;1.77;;;10.50;99.90;;;;;;5004627;28;20208;-73
2023/02/02 13:58:26;;;;;;;5.97;1.90;;;10.30;99.90;;;;;;4998398;28;20188;-73
2023/02/02 14:01:15;;;;;;;4.80;1.83;;;10.40;99.90;;;;;;5004733;28;20564;-73
2023/02/02 14:03:54;;;;;;;6.30;1.97;;;10.50;99.90;;;;;;5004872;28;20187;-73
2023/02/02 14:06:57;;;;;;;7.23;1.80;;;10.50;99.90;;;;;;5004048;28;20677;-73
2023/02/02 14:09:38;;;;;;;5.53;1.90;;;10.40;99.90;;;;;;5008836;28;20253;-74
2023/02/02 14:12:15;;;;;;;6.93;2.00;;;10.30;99.90;;;;;;4996862;28;20217;-73
2023/02/02 14:14:50;;;;;;;5.33;2.13;;;10.30;99.90;;;;;;5022635;28;20212;-74
2023/02/02 14:17:25;;;;;;;7.10;1.90;;;10.30;99.90;;;;;;4999268;28;20590;-73
2023/02/02 14:20:25;;;;;;;7.67;2.17;;;10.30;99.90;;;;;;5022485;28;20180;-73
2023/02/02 14:23:01;;;;;;;6.87;2.00;;;10.30;99.90;;;;;;5001171;28;20755;-74
2023/02/02 14:25:43;;;;;;;20.50;2.73;;;10.20;99.90;;;;;;5011699;28;20549;-74
2023/02/02 14:28:50;;;;;;;5.80;1.80;;;10.10;99.90;;;;;;5003255;28;20188;-73
2023/02/02 14:31:50;;;;;;;7.67;2.00;;;10.10;99.90;;;;;;5003614;28;20545;-74
2023/02/02 14:34:49;;;;;;;4.67;1.80;;;10.00;99.90;;;;;;5008118;28;20216;-74
2023/02/02 14:37:23;;;;;;;5.27;2.00;;;10.00;99.90;;;;;;4994240;28;20665;-73
2023/02/02 14:40:07;;;;;;;7.73;2.40;;;9.90;99.90;;;;;;4999904;28;20185;-74
2023/02/02 14:45:47;;;;;;;10.23;1.87;;;9.80;99.90;;;;;;4997842;28;20525;-73
2023/02/02 14:48:28;;;;;;;9.87;2.00;;;9.70;99.90;;;;;;5013416;28;20195;-73